Latest Weather Observations for Camden

IDN60901

Issued at 2:31 pm EDT Monday 18 November 2019 (issued every 10 minutes, with the page automatically refreshed every 10 minutes)

About weather observations | Map of Sydney area stations | Latest observations for Sydney area | Other Formats
Station Details ID: 068192 Name: CAMDEN AIRPORT AWS Lat: -34.04 Lon: 150.69 Height: 73.9 m
Data from the previous 72 hours. | See also: Recent months at Camden
Date/Time
EDT
Temp
°C
App
Temp
°C
Dew
Point
°C
Rel
Hum
%
Delta-T
°C
Wind Press
QNH
hPa
Press
MSL
hPa
Rain since
9am
mm
Dir  Spd
km/h
Gust
km/h
Spd
kts
Gust
kts
18/02:30pm 28.9 25.0 6.9 25 11.8 NNW 17 26 9 14 1012.7 1012.5 0.0
18/02:00pm 28.5 25.6 8.2 28 11.1 NE 13 26 7 14 1013.4 1013.2 0.0
18/01:30pm 27.8 25.2 7.6 28 10.9 NNW 11 19 6 10 1014.1 1013.9 0.0
18/01:00pm 27.0 23.7 8.0 30 10.3 NNE 15 22 8 12 1014.8 1014.6 0.0
18/12:30pm 26.4 22.3 7.9 31 9.9 NNE 19 28 10 15 1015.1 1014.9 0.0
18/12:00pm 25.0 22.7 8.9 36 8.7 N 11 26 6 14 1016.2 1015.9 0.0
18/11:30am 24.1 20.8 9.7 40 7.9 N 17 28 9 15 1017.0 1016.8 0.0
18/11:00am 23.0 20.7 10.4 45 6.9 N 13 28 7 15 1017.6 1017.4 0.0
18/10:30am 22.5 19.0 10.3 46 6.7 N 19 30 10 16 1018.1 1017.9 0.0
18/10:25am 22.2 18.8 10.4 47 6.5 N 19 30 10 16 1018.2 1018.0 0.0
18/10:00am 20.8 17.2 10.6 52 5.6 N 20 28 11 15 1018.6 1018.4 0.0
18/09:34am 20.4 17.3 11.6 57 4.9 N 19 26 10 14 1019.1 1018.9 0.0
18/09:30am 20.2 17.1 11.7 58 4.7 N 19 26 10 14 1019.2 1019.0 0.0
18/09:00am 19.1 16.7 11.4 61 4.2 N 15 24 8 13 1019.6 1019.4 0.0
18/08:30am 17.7 16.5 11.5 67 3.4 NNW 9 13 5 7 1019.6 1019.4 0.0
18/08:00am 16.8 16.5 11.3 70 3.0 NNW 4 9 2 5 1019.5 1019.3 0.0
18/07:45am 16.0 16.5 11.6 75 2.4 CALM 0 0 0 0 1019.5 1019.3 0.0
18/07:30am 15.5 16.2 12.3 81 1.8 CALM 0 0 0 0 1019.4 1019.2 0.0
18/07:26am 15.1 15.8 12.2 83 1.6 CALM 0 0 0 0 1019.3 1019.1 0.0
18/07:00am 14.0 14.6 11.9 87 1.1 CALM 0 0 0 0 1019.2 1019.0 0.0
18/06:30am 13.4 13.7 10.9 85 1.3 CALM 0 0 0 0 1019.0 1018.8 0.0
18/06:00am 13.5 13.9 11.4 87 1.1 CALM 0 0 0 0 1019.0 1018.8 0.0
18/05:30am 13.1 13.4 11.0 87 1.1 CALM 0 0 0 0 1018.9 1018.7 0.0
18/05:00am 13.8 14.3 11.5 86 1.2 CALM 0 0 0 0 1018.9 1018.7 0.0
18/04:30am 13.8 14.1 11.0 83 1.5 CALM 0 0 0 0 1018.8 1018.6 0.0
18/04:00am 13.7 13.9 10.5 81 1.7 CALM 0 0 0 0 1018.9 1018.7 0.0
18/03:30am 14.7 15.0 10.9 78 2.0 CALM 0 0 0 0 1019.3 1019.1 0.0
18/03:00am 14.9 15.2 10.9 77 2.1 CALM 0 0 0 0 1019.5 1019.3 0.0
18/02:30am 15.3 15.7 11.3 77 2.1 CALM 0 0 0 0 1019.6 1019.4 0.0
18/02:00am 15.3 15.7 11.1 76 2.2 CALM 0 0 0 0 1020.1 1019.9 0.0
18/01:30am 15.6 15.9 10.8 73 2.6 CALM 0 4 0 2 1020.3 1020.1 0.0
18/01:00am 15.7 14.8 10.7 72 2.7 S 6 7 3 4 1020.7 1020.5 0.0
18/12:30am 15.7 15.2 10.7 72 2.7 SSW 4 6 2 3 1020.8 1020.6 0.0
18/12:00am 15.7 14.8 10.7 72 2.7 S 6 9 3 5 1021.1 1020.9 0.0
 
Date/Time
EDT
Temp
°C
App
Temp
°C
Dew
Point
°C
Rel
Hum
%
Delta-T
°C
Wind Press
QNH
hPa
Press
MSL
hPa
Rain since
9am
mm
Dir  Spd
km/h
Gust
km/h
Spd
kts
Gust
kts
17/11:30pm 16.1 15.0 10.6 70 2.9 S 7 9 4 5 1021.3 1021.1 0.0
17/11:00pm 16.0 14.9 10.5 70 2.9 SSE 7 9 4 5 1021.2 1021.0 0.0
17/10:30pm 16.2 14.7 10.5 69 3.0 S 9 13 5 7 1021.4 1021.2 0.0
17/10:00pm 16.3 15.2 10.6 69 3.0 SSE 7 13 4 7 1021.3 1021.1 0.0
17/09:30pm 16.3 14.8 10.6 69 3.0 S 9 13 5 7 1021.2 1021.0 0.0
17/09:00pm 16.3 14.8 10.4 68 3.1 SSE 9 13 5 7 1020.7 1020.5 0.0
17/08:30pm 16.4 14.9 10.5 68 3.1 SE 9 15 5 8 1020.4 1020.2 0.0
17/08:00pm 16.4 14.1 10.5 68 3.1 SE 13 20 7 11 1020.0 1019.8 0.0
17/07:30pm 16.7 14.5 10.8 68 3.2 SE 13 17 7 9 1019.5 1019.3 0.0
17/07:00pm 17.0 14.4 10.6 66 3.4 SE 15 22 8 12 1019.0 1018.8 0.0
17/06:30pm 17.2 14.2 10.6 65 3.5 ESE 17 28 9 15 1018.5 1018.3 0.0
17/06:00pm 17.5 14.2 10.9 65 3.6 ESE 19 32 10 17 1018.0 1017.8 0.0
17/05:30pm 18.2 14.8 10.6 61 4.1 SE 19 24 10 13 1017.4 1017.2 0.0
17/05:00pm 18.7 15.1 10.5 59 4.4 SE 20 33 11 18 1017.0 1016.8 0.0
17/04:30pm 18.8 15.2 10.6 59 4.4 SE 20 30 11 16 1016.4 1016.1 0.0
17/04:00pm 19.2 15.6 10.5 57 4.7 SE 20 32 11 17 1016.1 1015.8 0.0
17/03:30pm 19.6 15.9 10.0 54 5.2 SE 20 33 11 18 1015.8 1015.5 0.0
17/03:00pm 20.7 17.3 11.1 54 5.3 ESE 20 33 11 18 1015.7 1015.4 0.0
17/02:30pm 21.5 17.6 10.9 51 5.8 SE 22 35 12 19 1015.5 1015.2 0.0
17/02:00pm 22.0 18.4 10.5 48 6.3 SSE 20 33 11 18 1015.5 1015.2 0.0
17/01:30pm 22.0 17.5 10.2 47 6.4 SE 24 35 13 19 1015.3 1015.1 0.0
17/01:00pm 23.2 19.3 10.9 46 6.8 ESE 22 33 12 18 1015.2 1015.0 0.0
17/12:30pm 22.5 18.6 9.3 43 7.1 SE 20 32 11 17 1015.1 1014.9 0.0
17/12:00pm 24.1 21.1 12.1 47 6.8 ESE 19 28 10 15 1015.0 1014.8 0.0
17/11:30am 23.3 20.4 12.3 50 6.3 SE 19 26 10 14 1015.0 1014.8 0.0
17/11:00am 22.9 20.1 11.3 48 6.5 SE 17 28 9 15 1015.2 1015.0 0.0
17/10:30am 22.9 19.9 11.9 50 6.2 SE 19 26 10 14 1015.2 1015.0 0.0
17/10:00am 21.1 19.1 12.8 59 4.7 S 15 20 8 11 1015.5 1015.2 0.0
17/09:30am 20.8 19.2 12.8 60 4.6 S 13 19 7 10 1015.5 1015.2 0.0
17/09:00am 20.0 18.8 12.7 63 4.1 S 11 19 6 10 1015.5 1015.2 0.0
17/08:30am 19.0 17.7 13.6 71 3.1 S 13 17 7 9 1015.5 1015.2 0.0
17/08:00am 17.7 16.7 13.4 76 2.4 S 11 15 6 8 1015.1 1014.9 0.0
17/07:30am 16.9 16.7 13.6 81 1.9 S 7 11 4 6 1015.1 1014.9 0.0
17/07:00am 16.0 16.4 13.7 86 1.3 SW 4 7 2 4 1015.1 1014.9 0.0
17/06:30am 15.2 16.2 13.1 87 1.2 CALM 0 0 0 0 1014.9 1014.7 0.0
17/06:00am 15.0 15.8 12.7 86 1.3 CALM 0 0 0 0 1014.9 1014.7 0.0
17/05:30am 15.1 15.5 12.4 84 1.5 SW 2 6 1 3 1014.8 1014.6 0.0
17/05:00am 15.1 14.7 12.4 84 1.5 SSW 6 9 3 5 1014.8 1014.6 0.0
17/04:30am 15.6 15.1 12.7 83 1.6 S 7 9 4 5 1014.7 1014.5 0.0
17/04:00am 16.1 15.7 12.5 79 2.0 S 6 7 3 4 1015.0 1014.8 0.0
17/03:30am 17.0 16.6 12.9 77 2.3 S 7 9 4 5 1015.5 1015.2 0.0
17/03:00am 17.1 16.7 13.0 77 2.3 SSE 7 11 4 6 1015.3 1015.1 0.0
17/02:30am 17.4 18.3 12.9 75 2.5 CALM 0 0 0 0 1015.8 1015.5 0.0
17/02:00am 17.7 18.6 12.8 73 2.7 CALM 0 0 0 0 1015.9 1015.6 0.0
17/01:30am 17.6 18.4 12.7 73 2.7 CALM 0 0 0 0 1015.9 1015.6 0.0
17/01:00am 17.4 16.5 12.7 74 2.6 ENE 9 11 5 6 1015.8 1015.5 0.0
17/12:30am 17.7 17.4 12.8 73 2.7 E 6 11 3 6 1016.1 1015.8 0.0
17/12:00am 17.8 17.5 12.7 72 2.8 E 6 9 3 5 1016.8 1016.6 0.0
 
Date/Time
EDT
Temp
°C
App
Temp
°C
Dew
Point
°C
Rel
Hum
%
Delta-T
°C
Wind Press
QNH
hPa
Press
MSL
hPa
Rain since
9am
mm
Dir  Spd
km/h
Gust
km/h
Spd
kts
Gust
kts
16/11:30pm 18.0 18.5 12.7 71 3.0 E 2 7 1 4 1017.1 1016.9 0.0
16/11:00pm 18.1 18.9 12.5 70 3.1 CALM 0 0 0 0 1017.3 1017.1 0.0
16/10:30pm 18.0 18.5 12.7 71 3.0 E 2 7 1 4 1017.0 1016.8 0.0
16/10:00pm 18.1 17.6 12.5 70 3.1 E 7 11 4 6 1016.9 1016.7 0.0
16/09:30pm 18.1 17.6 12.5 70 3.1 ESE 7 11 4 6 1016.8 1016.6 0.0
16/09:00pm 18.1 17.1 12.3 69 3.2 SE 9 15 5 8 1016.4 1016.1 0.0
16/08:30pm 18.1 17.5 12.3 69 3.2 E 7 13 4 7 1016.1 1015.8 0.0
16/08:00pm 17.8 17.2 11.8 68 3.3 E 6 13 3 7 1015.6 1015.3 0.0
16/07:30pm 18.3 17.2 11.8 66 3.6 ESE 9 15 5 8 1015.2 1015.0 0.0
16/07:00pm 19.0 17.8 11.6 62 4.1 E 9 15 5 8 1014.7 1014.5 0.0
16/06:30pm 19.7 17.3 11.5 59 4.5 ENE 15 22 8 12 1014.3 1014.1 0.0
16/06:16pm 20.2 17.8 11.4 57 4.9 ENE 15 20 8 11 1014.1 1013.9 0.0
16/06:00pm 20.4 17.5 11.1 55 5.1 ENE 17 26 9 14 1013.9 1013.7 0.0
16/05:57pm 20.5 17.7 11.2 55 5.1 ENE 17 26 9 14 1013.8 1013.6 0.0
16/05:30pm 21.0 17.8 11.1 53 5.5 E 19 28 10 15 1013.5 1013.3 0.0
16/05:00pm 22.8 20.0 11.2 48 6.5 E 17 26 9 14 1013.5 1013.3 0.0
16/04:30pm 23.1 20.3 11.2 47 6.7 E 17 26 9 14 1013.4 1013.2 0.0
16/04:00pm 23.2 19.7 10.9 46 6.8 ENE 20 33 11 18 1013.3 1013.1 0.0
16/03:30pm 23.5 20.0 10.9 45 7.0 ENE 20 33 11 18 1013.4 1013.2 0.0
16/03:00pm 24.1 20.5 10.7 43 7.5 E 20 32 11 17 1013.7 1013.5 0.0
16/02:30pm 25.2 22.0 11.4 42 7.8 ENE 19 28 10 15 1013.9 1013.7 0.0
16/02:00pm 24.6 20.8 11.2 43 7.5 ENE 22 32 12 17 1014.2 1014.0 0.0
16/01:30pm 24.9 21.4 10.8 41 7.9 ENE 20 30 11 16 1014.5 1014.3 0.0
16/01:00pm 22.3 18.9 10.5 47 6.5 ENE 19 28 10 15 1014.8 1014.6 0.0
16/12:30pm 22.7 19.6 10.2 45 6.9 E 17 28 9 15 1015.1 1014.9 0.0
16/12:00pm 24.3 22.2 8.3 36 8.5 ESE 9 17 5 9 1015.5 1015.2 0.0
16/11:30am 24.3 22.1 7.9 35 8.7 E 9 15 5 8 1015.8 1015.5 0.0
16/11:00am 22.7 21.1 8.0 39 7.7 WNW 6 15 3 8 1016.1 1015.8 0.0
16/10:30am 21.4 19.9 9.0 45 6.6 N 7 13 4 7 1016.2 1015.9 0.0
16/10:00am 20.9 19.0 8.9 46 6.4 ESE 9 15 5 8 1016.3 1016.0 0.0
16/09:30am 21.9 20.8 10.7 49 6.2 SSE 7 13 4 7 1016.3 1016.0 0.0
16/09:00am 20.5 19.3 11.7 57 4.9 ENE 9 15 5 8 1016.3 1016.0 0.0
16/08:30am 19.2 17.6 11.5 61 4.2 S 11 20 6 11 1016.4 1016.1 0.0
16/08:00am 18.3 18.0 11.4 64 3.8 SSW 4 11 2 6 1016.2 1015.9 0.0
16/07:30am 17.2 16.4 11.2 68 3.3 WSW 6 9 3 5 1015.7 1015.4 0.0
16/07:00am 15.5 15.9 11.1 75 2.4 CALM 0 0 0 0 1015.3 1015.1 0.0
16/06:30am 13.2 13.6 11.1 87 1.1 CALM 0 0 0 0 1015.1 1014.9 0.0
16/06:00am 12.9 13.2 11.0 88 1.0 CALM 0 0 0 0 1014.5 1014.3 0.0
16/05:30am 13.3 13.6 10.8 85 1.3 CALM 0 0 0 0 1014.0 1013.8 0.0
16/05:00am 13.8 13.9 10.0 78 2.0 CALM 0 0 0 0 1013.5 1013.3 0.0
16/04:30am 14.5 14.9 11.1 80 1.8 CALM 0 0 0 0 1013.4 1013.2 0.0
16/04:00am 15.0 15.0 11.2 78 2.0 S 2 7 1 4 1013.1 1012.9 0.0
16/03:30am 15.5 14.8 11.3 76 2.3 SSE 6 9 3 5 1013.0 1012.8 0.0
16/03:00am 15.9 14.4 10.7 71 2.8 SE 9 13 5 7 1012.9 1012.7 0.0
16/02:30am 17.0 14.4 10.8 67 3.3 SSE 15 22 8 12 1012.7 1012.5 0.0
16/02:00am 18.2 15.8 8.5 53 5.0 SSE 11 19 6 10 1012.5 1012.3 0.0
16/01:30am 20.6 15.8 -0.1 25 9.2 SW 15 19 8 10 1012.0 1011.8 0.0
16/01:00am 21.3 16.4 -0.6 23 9.7 SW 15 20 8 11 1011.8 1011.6 0.0
16/12:30am 22.3 17.4 -0.4 22 10.2 WSW 15 20 8 11 1011.7 1011.5 0.0
16/12:00am 22.1 17.0 -1.9 20 10.4 SW 15 20 8 11 1011.4 1011.2 0.0
 
Date/Time
EDT
Temp
°C
App
Temp
°C
Dew
Point
°C
Rel
Hum
%
Delta-T
°C
Wind Press
QNH
hPa
Press
MSL
hPa
Rain since
9am
mm
Dir  Spd
km/h
Gust
km/h
Spd
kts
Gust
kts
15/11:30pm 22.2 17.6 -1.1 21 10.3 WSW 13 19 7 10 1011.1 1010.9 0.0
15/11:00pm 22.2 17.3 -0.5 22 10.2 WSW 15 17 8 9 1010.7 1010.5 0.0
15/10:30pm 22.7 18.6 -0.1 22 10.3 W 11 15 6 8 1010.1 1009.9 0.0
15/10:00pm 24.8 20.7 -0.4 19 11.5 WNW 11 19 6 10 1009.9 1009.7 0.0
15/09:30pm 24.8 21.0 -1.1 18 11.7 WNW 9 13 5 7 1009.5 1009.3 0.0
15/09:00pm 25.4 20.8 -1.4 17 12.1 W 13 20 7 11 1009.2 1009.0 0.0
15/08:30pm 27.0 21.9 -1.8 15 13.1 W 15 20 8 11 1008.5 1008.3 0.0
15/08:00pm 28.2 21.5 -3.9 12 14.2 W 22 33 12 18 1007.8 1007.6 0.0
15/07:30pm 29.1 22.0 -4.3 11 14.7 WNW 24 35 13 19 1007.3 1007.1 0.0
15/07:00pm 30.0 23.6 -4.9 10 15.4 WNW 20 32 11 17 1006.8 1006.6 0.0
15/06:30pm 30.8 23.6 -5.7 9 15.9 W 24 32 13 17 1006.2 1006.0 0.0
15/06:00pm 31.1 22.0 -7.0 8 16.4 W 33 44 18 24 1005.6 1005.4 0.0
15/05:30pm 32.4 23.8 -7.8 7 17.2 W 30 46 16 25 1005.1 1004.9 0.0
15/05:28pm 32.5 24.5 -6.0 8 17.0 W 28 46 15 25 1005.1 1004.9 0.0
15/05:00pm 32.9 23.9 -5.7 8 17.2 W 33 48 18 26 1004.8 1004.5 0.0
15/04:47pm 33.1 25.1 -5.5 8 17.2 W 28 46 15 25 1004.9 1004.6 0.0
15/04:30pm 32.8 23.8 -5.7 8 17.1 WSW 33 44 18 24 1004.8 1004.5 0.0
15/04:01pm 33.5 24.6 -5.2 8 17.4 WSW 33 52 18 28 1004.8 1004.5 0.0
15/04:00pm 33.4 24.1 -5.3 8 17.4 WSW 35 52 19 28 1004.8 1004.5 0.0
15/03:58pm 33.3 24.4 -5.4 8 17.3 WSW 33 52 18 28 1004.8 1004.5 0.0
15/03:30pm 33.4 24.9 -3.7 9 17.1 W 32 44 17 24 1004.9 1004.6 0.0
15/03:00pm 33.4 27.1 -3.7 9 17.2 WSW 20 32 11 17 1005.3 1005.1 0.0

Latest Capital City Observations: Canberra | Sydney | Melbourne | Brisbane | Adelaide | Perth | Hobart | Darwin

Other formats

Comma delimited format used in spreadsheet applications
http://www.bom.gov.au/fwo/IDN60901/IDN60901.94755.axf

JavaScript Object Notation format (JSON) in row-major order
http://www.bom.gov.au/fwo/IDN60901/IDN60901.94755.json

Data quality

Most of these data are generated automatically and are frequently updated. Quality checks on data are not normally performed. It is possible for incorrect values to appear. Refer to information at About Latest Weather Observations and please check the disclaimer before using these data.